sensor_id;sensor_type;location;lat;lon;timestamp;P1;durP1;ratioP1;P2;durP2;ratioP2
76035;SDS011;64732;56.314;44.068;2023-06-22T00:01:39;1.60;;;0.60;;
76035;SDS011;64732;56.314;44.068;2023-06-22T00:04:00;1.77;;;0.88;;
76035;SDS011;64732;56.314;44.068;2023-06-22T00:06:21;1.52;;;0.73;;
76035;SDS011;64732;56.314;44.068;2023-06-22T00:08:45;2.38;;;0.90;;
76035;SDS011;64732;56.314;44.068;2023-06-22T00:11:06;2.38;;;0.98;;
76035;SDS011;64732;56.314;44.068;2023-06-22T00:13:27;2.30;;;1.15;;
76035;SDS011;64732;56.314;44.068;2023-06-22T00:15:48;1.98;;;0.80;;
76035;SDS011;64732;56.314;44.068;2023-06-22T00:18:09;2.65;;;1.33;;
76035;SDS011;64732;56.314;44.068;2023-06-22T00:20:31;1.67;;;0.80;;
76035;SDS011;64732;56.314;44.068;2023-06-22T00:22:52;2.28;;;1.17;;
76035;SDS011;64732;56.314;44.068;2023-06-22T00:25:17;3.67;;;1.45;;
76035;SDS011;64732;56.314;44.068;2023-06-22T00:27:38;1.88;;;0.93;;
76035;SDS011;64732;56.314;44.068;2023-06-22T00:29:59;4.28;;;1.00;;
76035;SDS011;64732;56.314;44.068;2023-06-22T00:32:20;1.95;;;0.93;;
76035;SDS011;64732;56.314;44.068;2023-06-22T00:34:41;2.72;;;1.00;;
76035;SDS011;64732;56.314;44.068;2023-06-22T00:37:02;3.92;;;1.10;;
76035;SDS011;64732;56.314;44.068;2023-06-22T00:39:24;2.05;;;0.95;;
76035;SDS011;64732;56.314;44.068;2023-06-22T00:41:47;3.83;;;1.40;;
76035;SDS011;64732;56.314;44.068;2023-06-22T00:44:08;3.42;;;1.20;;
76035;SDS011;64732;56.314;44.068;2023-06-22T00:46:29;2.75;;;1.30;;
76035;SDS011;64732;56.314;44.068;2023-06-22T00:48:50;2.00;;;1.00;;
76035;SDS011;64732;56.314;44.068;2023-06-22T00:51:12;3.83;;;1.08;;
76035;SDS011;64732;56.314;44.068;2023-06-22T00:53:33;2.25;;;0.90;;
76035;SDS011;64732;56.314;44.068;2023-06-22T00:55:55;2.47;;;0.95;;
76035;SDS011;64732;56.314;44.068;2023-06-22T00:58:18;3.03;;;1.10;;
76035;SDS011;64732;56.314;44.068;2023-06-22T01:00:40;1.90;;;0.88;;
76035;SDS011;64732;56.314;44.068;2023-06-22T01:03:01;2.03;;;0.95;;
76035;SDS011;64732;56.314;44.068;2023-06-22T01:05:23;1.80;;;0.90;;
76035;SDS011;64732;56.314;44.068;2023-06-22T01:07:46;2.22;;;0.80;;
76035;SDS011;64732;56.314;44.068;2023-06-22T01:10:14;2.05;;;1.02;;
76035;SDS011;64732;56.314;44.068;2023-06-22T01:12:40;1.73;;;0.65;;
76035;SDS011;64732;56.314;44.068;2023-06-22T01:15:08;5.28;;;1.73;;
76035;SDS011;64732;56.314;44.068;2023-06-22T01:17:30;2.97;;;0.80;;
76035;SDS011;64732;56.314;44.068;2023-06-22T01:19:53;2.10;;;0.90;;
76035;SDS011;64732;56.314;44.068;2023-06-22T01:22:15;1.90;;;1.00;;
76035;SDS011;64732;56.314;44.068;2023-06-22T01:24:40;2.00;;;0.98;;
76035;SDS011;64732;56.314;44.068;2023-06-22T01:27:09;2.17;;;1.08;;
76035;SDS011;64732;56.314;44.068;2023-06-22T01:29:35;3.30;;;1.20;;
76035;SDS011;64732;56.314;44.068;2023-06-22T01:31:57;2.33;;;1.00;;
76035;SDS011;64732;56.314;44.068;2023-06-22T01:34:20;2.30;;;1.08;;
76035;SDS011;64732;56.314;44.068;2023-06-22T01:36:42;2.67;;;1.30;;
76035;SDS011;64732;56.314;44.068;2023-06-22T01:39:03;3.17;;;1.52;;
76035;SDS011;64732;56.314;44.068;2023-06-22T01:41:26;1.85;;;0.77;;
76035;SDS011;64732;56.314;44.068;2023-06-22T01:43:47;2.33;;;1.08;;
76035;SDS011;64732;56.314;44.068;2023-06-22T01:46:12;2.17;;;0.95;;
76035;SDS011;64732;56.314;44.068;2023-06-22T01:48:33;2.28;;;0.98;;
76035;SDS011;64732;56.314;44.068;2023-06-22T01:50:54;2.00;;;0.88;;
76035;SDS011;64732;56.314;44.068;2023-06-22T01:53:15;1.98;;;0.90;;
76035;SDS011;64732;56.314;44.068;2023-06-22T01:55:36;3.60;;;1.30;;
76035;SDS011;64732;56.314;44.068;2023-06-22T01:57:58;5.82;;;0.85;;
76035;SDS011;64732;56.314;44.068;2023-06-22T02:00:19;3.78;;;1.05;;
76035;SDS011;64732;56.314;44.068;2023-06-22T02:02:46;2.42;;;0.98;;
76035;SDS011;64732;56.314;44.068;2023-06-22T02:05:10;1.95;;;0.85;;
76035;SDS011;64732;56.314;44.068;2023-06-22T02:07:34;3.22;;;1.15;;
76035;SDS011;64732;56.314;44.068;2023-06-22T02:09:59;2.30;;;1.10;;
76035;SDS011;64732;56.314;44.068;2023-06-22T02:12:25;3.78;;;1.00;;
76035;SDS011;64732;56.314;44.068;2023-06-22T02:14:47;2.20;;;1.10;;
76035;SDS011;64732;56.314;44.068;2023-06-22T02:17:08;2.92;;;0.90;;
76035;SDS011;64732;56.314;44.068;2023-06-22T02:19:35;4.20;;;1.27;;
76035;SDS011;64732;56.314;44.068;2023-06-22T02:21:56;2.78;;;0.98;;
76035;SDS011;64732;56.314;44.068;2023-06-22T02:24:17;2.72;;;0.90;;
76035;SDS011;64732;56.314;44.068;2023-06-22T02:26:38;2.80;;;1.17;;
76035;SDS011;64732;56.314;44.068;2023-06-22T02:29:00;1.65;;;0.85;;
76035;SDS011;64732;56.314;44.068;2023-06-22T02:31:21;4.88;;;1.80;;
76035;SDS011;64732;56.314;44.068;2023-06-22T02:33:42;3.28;;;1.15;;
76035;SDS011;64732;56.314;44.068;2023-06-22T02:36:05;4.80;;;1.75;;
76035;SDS011;64732;56.314;44.068;2023-06-22T02:38:26;3.67;;;1.20;;
76035;SDS011;64732;56.314;44.068;2023-06-22T02:40:47;2.88;;;1.02;;
76035;SDS011;64732;56.314;44.068;2023-06-22T02:43:09;2.80;;;1.02;;
76035;SDS011;64732;56.314;44.068;2023-06-22T02:45:30;3.45;;;1.38;;
76035;SDS011;64732;56.314;44.068;2023-06-22T02:47:51;2.88;;;1.45;;
76035;SDS011;64732;56.314;44.068;2023-06-22T02:50:12;2.63;;;1.30;;
76035;SDS011;64732;56.314;44.068;2023-06-22T02:52:35;2.97;;;1.45;;
76035;SDS011;64732;56.314;44.068;2023-06-22T02:54:56;3.00;;;1.48;;
76035;SDS011;64732;56.314;44.068;2023-06-22T02:57:17;3.10;;;1.05;;
76035;SDS011;64732;56.314;44.068;2023-06-22T02:59:39;4.30;;;1.55;;
76035;SDS011;64732;56.314;44.068;2023-06-22T03:02:00;3.17;;;1.45;;
76035;SDS011;64732;56.314;44.068;2023-06-22T03:04:21;2.80;;;1.40;;
76035;SDS011;64732;56.314;44.068;2023-06-22T03:06:42;8.90;;;1.33;;
76035;SDS011;64732;56.314;44.068;2023-06-22T03:09:05;4.68;;;1.40;;
76035;SDS011;64732;56.314;44.068;2023-06-22T03:11:26;3.15;;;1.50;;
76035;SDS011;64732;56.314;44.068;2023-06-22T03:13:47;2.95;;;1.60;;
76035;SDS011;64732;56.314;44.068;2023-06-22T03:16:08;4.18;;;1.63;;
76035;SDS011;64732;56.314;44.068;2023-06-22T03:18:29;3.03;;;1.45;;
76035;SDS011;64732;56.314;44.068;2023-06-22T03:20:51;4.05;;;1.92;;
76035;SDS011;64732;56.314;44.068;2023-06-22T03:23:12;3.20;;;1.80;;
76035;SDS011;64732;56.314;44.068;2023-06-22T03:25:35;2.92;;;1.60;;
76035;SDS011;64732;56.314;44.068;2023-06-22T03:27:56;4.05;;;1.42;;
76035;SDS011;64732;56.314;44.068;2023-06-22T03:30:17;4.80;;;2.00;;
76035;SDS011;64732;56.314;44.068;2023-06-22T03:32:38;5.07;;;2.28;;
76035;SDS011;64732;56.314;44.068;2023-06-22T03:34:59;3.45;;;2.10;;
76035;SDS011;64732;56.314;44.068;2023-06-22T03:37:20;4.18;;;2.38;;
76035;SDS011;64732;56.314;44.068;2023-06-22T03:39:41;4.43;;;2.20;;
76035;SDS011;64732;56.314;44.068;2023-06-22T03:42:05;4.78;;;2.53;;
76035;SDS011;64732;56.314;44.068;2023-06-22T03:44:27;5.70;;;2.45;;
76035;SDS011;64732;56.314;44.068;2023-06-22T03:46:48;4.95;;;2.00;;
76035;SDS011;64732;56.314;44.068;2023-06-22T03:49:09;4.68;;;2.75;;
76035;SDS011;64732;56.314;44.068;2023-06-22T03:51:30;4.88;;;2.17;;
76035;SDS011;64732;56.314;44.068;2023-06-22T03:53:52;4.78;;;2.28;;
76035;SDS011;64732;56.314;44.068;2023-06-22T03:56:13;4.38;;;2.70;;
76035;SDS011;64732;56.314;44.068;2023-06-22T03:58:36;3.75;;;2.58;;
76035;SDS011;64732;56.314;44.068;2023-06-22T04:00:58;5.78;;;2.67;;
76035;SDS011;64732;56.314;44.068;2023-06-22T04:03:19;8.02;;;4.20;;
76035;SDS011;64732;56.314;44.068;2023-06-22T04:05:43;9.45;;;4.75;;
76035;SDS011;64732;56.314;44.068;2023-06-22T04:08:04;8.63;;;4.63;;
76035;SDS011;64732;56.314;44.068;2023-06-22T04:10:25;6.15;;;3.55;;
76035;SDS011;64732;56.314;44.068;2023-06-22T04:12:46;6.57;;;3.50;;
76035;SDS011;64732;56.314;44.068;2023-06-22T04:15:10;7.22;;;2.67;;
76035;SDS011;64732;56.314;44.068;2023-06-22T04:17:31;7.45;;;2.90;;
76035;SDS011;64732;56.314;44.068;2023-06-22T04:19:52;9.68;;;3.13;;
76035;SDS011;64732;56.314;44.068;2023-06-22T04:22:13;8.00;;;3.15;;
76035;SDS011;64732;56.314;44.068;2023-06-22T04:24:34;7.00;;;2.42;;
76035;SDS011;64732;56.314;44.068;2023-06-22T04:26:55;5.15;;;2.88;;
76035;SDS011;64732;56.314;44.068;2023-06-22T04:29:16;6.93;;;3.15;;
76035;SDS011;64732;56.314;44.068;2023-06-22T04:31:40;5.32;;;3.08;;
76035;SDS011;64732;56.314;44.068;2023-06-22T04:34:01;6.45;;;2.75;;
76035;SDS011;64732;56.314;44.068;2023-06-22T04:36:22;5.45;;;2.78;;
76035;SDS011;64732;56.314;44.068;2023-06-22T04:38:43;5.75;;;2.55;;
76035;SDS011;64732;56.314;44.068;2023-06-22T04:41:04;7.28;;;2.92;;
76035;SDS011;64732;56.314;44.068;2023-06-22T04:43:25;11.85;;;3.72;;
76035;SDS011;64732;56.314;44.068;2023-06-22T04:45:46;11.75;;;3.95;;
76035;SDS011;64732;56.314;44.068;2023-06-22T04:48:10;7.63;;;2.97;;
76035;SDS011;64732;56.314;44.068;2023-06-22T04:50:31;6.68;;;2.50;;
76035;SDS011;64732;56.314;44.068;2023-06-22T04:52:52;3.78;;;1.92;;
76035;SDS011;64732;56.314;44.068;2023-06-22T04:55:13;8.60;;;3.30;;
76035;SDS011;64732;56.314;44.068;2023-06-22T04:57:34;4.80;;;2.40;;
76035;SDS011;64732;56.314;44.068;2023-06-22T04:59:55;5.93;;;2.20;;
76035;SDS011;64732;56.314;44.068;2023-06-22T05:02:16;5.60;;;2.30;;
76035;SDS011;64732;56.314;44.068;2023-06-22T05:04:40;6.40;;;1.90;;
76035;SDS011;64732;56.314;44.068;2023-06-22T05:07:02;6.70;;;2.10;;
76035;SDS011;64732;56.314;44.068;2023-06-22T05:09:23;4.47;;;1.60;;
76035;SDS011;64732;56.314;44.068;2023-06-22T05:11:44;3.45;;;1.80;;
76035;SDS011;64732;56.314;44.068;2023-06-22T05:14:05;4.55;;;1.70;;
76035;SDS011;64732;56.314;44.068;2023-06-22T05:16:26;5.75;;;1.42;;
76035;SDS011;64732;56.314;44.068;2023-06-22T05:18:47;2.42;;;1.15;;
76035;SDS011;64732;56.314;44.068;2023-06-22T05:21:11;1.63;;;0.77;;
76035;SDS011;64732;56.314;44.068;2023-06-22T05:23:32;4.43;;;1.65;;
76035;SDS011;64732;56.314;44.068;2023-06-22T05:25:53;4.00;;;1.70;;
76035;SDS011;64732;56.314;44.068;2023-06-22T05:28:14;4.15;;;1.98;;
76035;SDS011;64732;56.314;44.068;2023-06-22T05:30:35;14.75;;;7.63;;
76035;SDS011;64732;56.314;44.068;2023-06-22T05:32:56;3.67;;;1.73;;
76035;SDS011;64732;56.314;44.068;2023-06-22T05:35:17;3.63;;;1.80;;
76035;SDS011;64732;56.314;44.068;2023-06-22T05:37:41;4.47;;;1.58;;
76035;SDS011;64732;56.314;44.068;2023-06-22T05:40:02;3.53;;;1.48;;
76035;SDS011;64732;56.314;44.068;2023-06-22T05:42:24;4.57;;;1.67;;
76035;SDS011;64732;56.314;44.068;2023-06-22T05:44:46;4.97;;;1.70;;
76035;SDS011;64732;56.314;44.068;2023-06-22T05:47:07;2.70;;;1.60;;
76035;SDS011;64732;56.314;44.068;2023-06-22T05:49:28;4.88;;;1.85;;
76035;SDS011;64732;56.314;44.068;2023-06-22T05:51:49;2.28;;;0.93;;
76035;SDS011;64732;56.314;44.068;2023-06-22T05:54:12;3.88;;;1.70;;
76035;SDS011;64732;56.314;44.068;2023-06-22T05:56:33;3.53;;;1.70;;
76035;SDS011;64732;56.314;44.068;2023-06-22T05:58:54;3.38;;;1.80;;
76035;SDS011;64732;56.314;44.068;2023-06-22T06:01:15;4.88;;;1.98;;
76035;SDS011;64732;56.314;44.068;2023-06-22T06:03:36;3.97;;;2.10;;
76035;SDS011;64732;56.314;44.068;2023-06-22T06:05:57;3.40;;;1.90;;
76035;SDS011;64732;56.314;44.068;2023-06-22T06:08:18;3.40;;;2.10;;
76035;SDS011;64732;56.314;44.068;2023-06-22T06:10:45;8.70;;;1.92;;
76035;SDS011;64732;56.314;44.068;2023-06-22T06:13:06;4.50;;;2.00;;
76035;SDS011;64732;56.314;44.068;2023-06-22T06:15:27;4.43;;;2.35;;
76035;SDS011;64732;56.314;44.068;2023-06-22T06:17:49;3.08;;;1.52;;
76035;SDS011;64732;56.314;44.068;2023-06-22T06:20:11;3.83;;;2.15;;
76035;SDS011;64732;56.314;44.068;2023-06-22T06:22:32;4.85;;;2.13;;
76035;SDS011;64732;56.314;44.068;2023-06-22T06:27:32;10.52;;;5.93;;
76035;SDS011;64732;56.314;44.068;2023-06-22T06:29:53;3.25;;;1.95;;
76035;SDS011;64732;56.314;44.068;2023-06-22T06:32:14;3.40;;;1.48;;
76035;SDS011;64732;56.314;44.068;2023-06-22T06:34:35;3.20;;;1.40;;
76035;SDS011;64732;56.314;44.068;2023-06-22T06:36:56;6.40;;;2.42;;
76035;SDS011;64732;56.314;44.068;2023-06-22T06:39:17;5.88;;;2.72;;
76035;SDS011;64732;56.314;44.068;2023-06-22T06:41:38;4.03;;;1.70;;
76035;SDS011;64732;56.314;44.068;2023-06-22T06:44:02;3.95;;;2.20;;
76035;SDS011;64732;56.314;44.068;2023-06-22T06:46:23;5.05;;;2.20;;
76035;SDS011;64732;56.314;44.068;2023-06-22T06:48:44;3.67;;;2.17;;
76035;SDS011;64732;56.314;44.068;2023-06-22T06:51:05;4.43;;;2.30;;
76035;SDS011;64732;56.314;44.068;2023-06-22T06:53:26;5.88;;;2.78;;
76035;SDS011;64732;56.314;44.068;2023-06-22T06:55:47;4.72;;;2.30;;
76035;SDS011;64732;56.314;44.068;2023-06-22T06:58:08;4.28;;;2.08;;
76035;SDS011;64732;56.314;44.068;2023-06-22T07:00:32;6.00;;;2.38;;
76035;SDS011;64732;56.314;44.068;2023-06-22T07:02:53;4.20;;;1.90;;
76035;SDS011;64732;56.314;44.068;2023-06-22T07:05:14;4.20;;;2.65;;
76035;SDS011;64732;56.314;44.068;2023-06-22T07:07:35;5.13;;;2.13;;
76035;SDS011;64732;56.314;44.068;2023-06-22T07:09:56;4.60;;;1.70;;
76035;SDS011;64732;56.314;44.068;2023-06-22T07:12:17;4.18;;;2.20;;
76035;SDS011;64732;56.314;44.068;2023-06-22T07:14:38;7.32;;;2.22;;
76035;SDS011;64732;56.314;44.068;2023-06-22T07:17:02;4.82;;;2.40;;
76035;SDS011;64732;56.314;44.068;2023-06-22T07:19:26;3.88;;;2.45;;
76035;SDS011;64732;56.314;44.068;2023-06-22T07:21:47;4.50;;;2.20;;
76035;SDS011;64732;56.314;44.068;2023-06-22T07:24:08;3.83;;;2.45;;
76035;SDS011;64732;56.314;44.068;2023-06-22T07:26:29;3.83;;;2.03;;
76035;SDS011;64732;56.314;44.068;2023-06-22T07:28:50;4.15;;;1.95;;
76035;SDS011;64732;56.314;44.068;2023-06-22T07:31:11;3.30;;;1.80;;
76035;SDS011;64732;56.314;44.068;2023-06-22T07:33:35;3.92;;;2.40;;
76035;SDS011;64732;56.314;44.068;2023-06-22T07:35:56;5.05;;;2.50;;
76035;SDS011;64732;56.314;44.068;2023-06-22T07:38:17;4.70;;;2.92;;
76035;SDS011;64732;56.314;44.068;2023-06-22T07:40:38;4.80;;;2.42;;
76035;SDS011;64732;56.314;44.068;2023-06-22T07:42:59;3.95;;;2.28;;
76035;SDS011;64732;56.314;44.068;2023-06-22T07:45:22;5.78;;;2.42;;
76035;SDS011;64732;56.314;44.068;2023-06-22T07:47:43;3.85;;;2.20;;
76035;SDS011;64732;56.314;44.068;2023-06-22T07:50:07;3.80;;;1.98;;
76035;SDS011;64732;56.314;44.068;2023-06-22T07:52:29;5.40;;;2.50;;
76035;SDS011;64732;56.314;44.068;2023-06-22T07:54:51;4.75;;;2.30;;
76035;SDS011;64732;56.314;44.068;2023-06-22T07:57:12;5.13;;;2.53;;
76035;SDS011;64732;56.314;44.068;2023-06-22T07:59:33;3.65;;;2.33;;
76035;SDS011;64732;56.314;44.068;2023-06-22T08:01:54;4.10;;;2.42;;
76035;SDS011;64732;56.314;44.068;2023-06-22T08:04:15;4.00;;;2.42;;
76035;SDS011;64732;56.314;44.068;2023-06-22T08:06:39;4.10;;;2.55;;
76035;SDS011;64732;56.314;44.068;2023-06-22T08:09:00;4.72;;;2.63;;
76035;SDS011;64732;56.314;44.068;2023-06-22T08:11:21;4.70;;;2.50;;
76035;SDS011;64732;56.314;44.068;2023-06-22T08:13:42;4.88;;;2.72;;
76035;SDS011;64732;56.314;44.068;2023-06-22T08:16:03;3.97;;;2.40;;
76035;SDS011;64732;56.314;44.068;2023-06-22T08:18:25;4.63;;;2.35;;
76035;SDS011;64732;56.314;44.068;2023-06-22T08:20:46;4.15;;;2.28;;
76035;SDS011;64732;56.314;44.068;2023-06-22T08:23:10;5.95;;;2.45;;
76035;SDS011;64732;56.314;44.068;2023-06-22T08:25:31;6.43;;;2.90;;
76035;SDS011;64732;56.314;44.068;2023-06-22T08:27:52;4.20;;;2.65;;
76035;SDS011;64732;56.314;44.068;2023-06-22T08:30:13;4.20;;;2.78;;
76035;SDS011;64732;56.314;44.068;2023-06-22T08:32:34;3.03;;;1.52;;
76035;SDS011;64732;56.314;44.068;2023-06-22T08:34:55;4.70;;;2.17;;
76035;SDS011;64732;56.314;44.068;2023-06-22T08:37:17;4.07;;;1.67;;
76035;SDS011;64732;56.314;44.068;2023-06-22T08:39:41;4.28;;;2.15;;
76035;SDS011;64732;56.314;44.068;2023-06-22T08:42:02;3.78;;;2.35;;
76035;SDS011;64732;56.314;44.068;2023-06-22T08:44:23;4.05;;;2.42;;
76035;SDS011;64732;56.314;44.068;2023-06-22T08:46:44;4.28;;;2.47;;
76035;SDS011;64732;56.314;44.068;2023-06-22T08:49:05;5.05;;;2.55;;
76035;SDS011;64732;56.314;44.068;2023-06-22T08:51:26;5.22;;;3.03;;
76035;SDS011;64732;56.314;44.068;2023-06-22T08:53:47;5.43;;;3.13;;
76035;SDS011;64732;56.314;44.068;2023-06-22T08:56:13;3.97;;;2.00;;
76035;SDS011;64732;56.314;44.068;2023-06-22T08:58:35;4.45;;;2.50;;
76035;SDS011;64732;56.314;44.068;2023-06-22T09:00:57;4.45;;;2.67;;
76035;SDS011;64732;56.314;44.068;2023-06-22T09:03:18;3.67;;;2.22;;
76035;SDS011;64732;56.314;44.068;2023-06-22T09:05:42;4.43;;;2.65;;
76035;SDS011;64732;56.314;44.068;2023-06-22T09:08:03;6.07;;;2.55;;
76035;SDS011;64732;56.314;44.068;2023-06-22T09:10:24;4.88;;;2.58;;
76035;SDS011;64732;56.314;44.068;2023-06-22T09:12:48;3.63;;;2.25;;
76035;SDS011;64732;56.314;44.068;2023-06-22T09:15:10;3.50;;;2.10;;
76035;SDS011;64732;56.314;44.068;2023-06-22T09:17:31;4.22;;;2.17;;
76035;SDS011;64732;56.314;44.068;2023-06-22T09:19:52;4.15;;;2.50;;
76035;SDS011;64732;56.314;44.068;2023-06-22T09:22:13;4.30;;;2.53;;
76035;SDS011;64732;56.314;44.068;2023-06-22T09:24:34;3.85;;;2.78;;
76035;SDS011;64732;56.314;44.068;2023-06-22T09:26:55;5.28;;;2.65;;
76035;SDS011;64732;56.314;44.068;2023-06-22T09:29:19;5.05;;;3.00;;
76035;SDS011;64732;56.314;44.068;2023-06-22T09:31:40;6.20;;;2.63;;
76035;SDS011;64732;56.314;44.068;2023-06-22T09:34:01;4.60;;;2.45;;
76035;SDS011;64732;56.314;44.068;2023-06-22T09:36:22;4.05;;;2.17;;
76035;SDS011;64732;56.314;44.068;2023-06-22T09:38:43;5.55;;;2.25;;
76035;SDS011;64732;56.314;44.068;2023-06-22T09:41:04;4.70;;;2.42;;
76035;SDS011;64732;56.314;44.068;2023-06-22T09:43:25;4.97;;;2.90;;
76035;SDS011;64732;56.314;44.068;2023-06-22T09:45:49;4.07;;;2.53;;
76035;SDS011;64732;56.314;44.068;2023-06-22T09:48:10;3.85;;;2.50;;
76035;SDS011;64732;56.314;44.068;2023-06-22T09:50:32;4.40;;;2.85;;
76035;SDS011;64732;56.314;44.068;2023-06-22T09:52:53;5.03;;;2.88;;
76035;SDS011;64732;56.314;44.068;2023-06-22T09:55:14;3.25;;;1.70;;
76035;SDS011;64732;56.314;44.068;2023-06-22T09:57:35;4.85;;;2.45;;
76035;SDS011;64732;56.314;44.068;2023-06-22T09:59:56;3.60;;;1.85;;
76035;SDS011;64732;56.314;44.068;2023-06-22T10:02:20;6.22;;;2.80;;
76035;SDS011;64732;56.314;44.068;2023-06-22T10:04:40;3.33;;;1.80;;
76035;SDS011;64732;56.314;44.068;2023-06-22T10:07:02;4.78;;;2.35;;
76035;SDS011;64732;56.314;44.068;2023-06-22T10:09:24;9.70;;;2.83;;
76035;SDS011;64732;56.314;44.068;2023-06-22T10:11:45;5.18;;;2.60;;
76035;SDS011;64732;56.314;44.068;2023-06-22T10:14:06;5.53;;;2.72;;
76035;SDS011;64732;56.314;44.068;2023-06-22T10:16:30;4.35;;;2.67;;
76035;SDS011;64732;56.314;44.068;2023-06-22T10:18:54;4.72;;;2.85;;
76035;SDS011;64732;56.314;44.068;2023-06-22T10:21:15;6.45;;;2.50;;
76035;SDS011;64732;56.314;44.068;2023-06-22T10:23:36;4.63;;;2.45;;
76035;SDS011;64732;56.314;44.068;2023-06-22T10:25:57;5.57;;;2.60;;
76035;SDS011;64732;56.314;44.068;2023-06-22T10:28:18;3.55;;;2.17;;
76035;SDS011;64732;56.314;44.068;2023-06-22T10:30:39;4.28;;;1.95;;
76035;SDS011;64732;56.314;44.068;2023-06-22T10:33:02;3.25;;;2.30;;
76035;SDS011;64732;56.314;44.068;2023-06-22T10:35:25;4.93;;;2.60;;
76035;SDS011;64732;56.314;44.068;2023-06-22T10:37:50;4.15;;;2.60;;
76035;SDS011;64732;56.314;44.068;2023-06-22T10:40:12;3.70;;;2.50;;
76035;SDS011;64732;56.314;44.068;2023-06-22T10:42:33;3.80;;;2.10;;
76035;SDS011;64732;56.314;44.068;2023-06-22T10:44:54;4.75;;;2.65;;
76035;SDS011;64732;56.314;44.068;2023-06-22T10:47:15;3.78;;;2.33;;
76035;SDS011;64732;56.314;44.068;2023-06-22T10:49:37;3.95;;;2.17;;
76035;SDS011;64732;56.314;44.068;2023-06-22T10:52:00;3.13;;;2.20;;
76035;SDS011;64732;56.314;44.068;2023-06-22T10:54:21;4.90;;;2.42;;
76035;SDS011;64732;56.314;44.068;2023-06-22T10:56:42;4.57;;;2.67;;
76035;SDS011;64732;56.314;44.068;2023-06-22T10:59:03;3.88;;;2.33;;
76035;SDS011;64732;56.314;44.068;2023-06-22T11:01:24;3.83;;;2.40;;
76035;SDS011;64732;56.314;44.068;2023-06-22T11:03:45;4.25;;;2.55;;
76035;SDS011;64732;56.314;44.068;2023-06-22T11:06:06;2.65;;;1.20;;
76035;SDS011;64732;56.314;44.068;2023-06-22T11:08:30;4.47;;;2.72;;
76035;SDS011;64732;56.314;44.068;2023-06-22T11:10:51;5.35;;;2.20;;
76035;SDS011;64732;56.314;44.068;2023-06-22T11:13:12;4.28;;;2.70;;
76035;SDS011;64732;56.314;44.068;2023-06-22T11:15:33;4.13;;;2.33;;
76035;SDS011;64732;56.314;44.068;2023-06-22T11:17:54;3.65;;;2.35;;
76035;SDS011;64732;56.314;44.068;2023-06-22T11:20:15;3.53;;;2.40;;
76035;SDS011;64732;56.314;44.068;2023-06-22T11:22:36;3.60;;;2.30;;
76035;SDS011;64732;56.314;44.068;2023-06-22T11:25:00;4.93;;;2.70;;
76035;SDS011;64732;56.314;44.068;2023-06-22T11:27:21;4.05;;;2.65;;
76035;SDS011;64732;56.314;44.068;2023-06-22T11:29:42;5.18;;;2.42;;
76035;SDS011;64732;56.314;44.068;2023-06-22T11:32:04;5.60;;;2.90;;
76035;SDS011;64732;56.314;44.068;2023-06-22T11:34:26;3.72;;;2.47;;
76035;SDS011;64732;56.314;44.068;2023-06-22T11:36:47;2.13;;;1.15;;
76035;SDS011;64732;56.314;44.068;2023-06-22T11:39:08;3.85;;;1.75;;
76035;SDS011;64732;56.314;44.068;2023-06-22T11:41:32;4.35;;;1.88;;
76035;SDS011;64732;56.314;44.068;2023-06-22T11:43:53;4.00;;;2.42;;
76035;SDS011;64732;56.314;44.068;2023-06-22T11:46:14;4.32;;;2.20;;
76035;SDS011;64732;56.314;44.068;2023-06-22T11:48:36;5.30;;;2.78;;
76035;SDS011;64732;56.314;44.068;2023-06-22T11:50:57;3.88;;;2.30;;
76035;SDS011;64732;56.314;44.068;2023-06-22T11:53:18;4.30;;;2.40;;
76035;SDS011;64732;56.314;44.068;2023-06-22T11:55:42;5.15;;;2.40;;
76035;SDS011;64732;56.314;44.068;2023-06-22T11:58:06;4.45;;;1.83;;
76035;SDS011;64732;56.314;44.068;2023-06-22T12:00:27;4.55;;;2.30;;
76035;SDS011;64732;56.314;44.068;2023-06-22T12:02:48;10.85;;;6.32;;
76035;SDS011;64732;56.314;44.068;2023-06-22T12:05:09;5.20;;;2.58;;
76035;SDS011;64732;56.314;44.068;2023-06-22T12:07:30;5.13;;;2.38;;
76035;SDS011;64732;56.314;44.068;2023-06-22T12:09:51;4.03;;;2.15;;
76035;SDS011;64732;56.314;44.068;2023-06-22T12:12:12;3.45;;;2.40;;
76035;SDS011;64732;56.314;44.068;2023-06-22T12:14:36;4.15;;;2.38;;
76035;SDS011;64732;56.314;44.068;2023-06-22T12:16:57;4.03;;;2.33;;
76035;SDS011;64732;56.314;44.068;2023-06-22T12:19:18;3.75;;;2.35;;
76035;SDS011;64732;56.314;44.068;2023-06-22T12:21:39;3.63;;;2.35;;
76035;SDS011;64732;56.314;44.068;2023-06-22T12:24:00;9.57;;;2.72;;
76035;SDS011;64732;56.314;44.068;2023-06-22T12:26:21;3.78;;;1.98;;
76035;SDS011;64732;56.314;44.068;2023-06-22T12:28:42;4.03;;;2.40;;
76035;SDS011;64732;56.314;44.068;2023-06-22T12:33:56;3.28;;;2.20;;
76035;SDS011;64732;56.314;44.068;2023-06-22T12:36:17;3.80;;;2.40;;
76035;SDS011;64732;56.314;44.068;2023-06-22T12:38:38;5.60;;;1.90;;
76035;SDS011;64732;56.314;44.068;2023-06-22T12:40:59;3.20;;;2.30;;
76035;SDS011;64732;56.314;44.068;2023-06-22T12:43:20;5.25;;;2.42;;
76035;SDS011;64732;56.314;44.068;2023-06-22T12:45:41;8.32;;;2.08;;
76035;SDS011;64732;56.314;44.068;2023-06-22T12:48:02;3.50;;;2.38;;
76035;SDS011;64732;56.314;44.068;2023-06-22T12:50:27;3.28;;;2.60;;
76035;SDS011;64732;56.314;44.068;2023-06-22T12:52:48;4.82;;;2.20;;
76035;SDS011;64732;56.314;44.068;2023-06-22T12:55:09;4.78;;;2.40;;
76035;SDS011;64732;56.314;44.068;2023-06-22T12:57:30;3.95;;;2.10;;
76035;SDS011;64732;56.314;44.068;2023-06-22T12:59:51;4.15;;;2.08;;
76035;SDS011;64732;56.314;44.068;2023-06-22T13:02:13;11.93;;;2.55;;
76035;SDS011;64732;56.314;44.068;2023-06-22T13:04:34;3.20;;;2.10;;
76035;SDS011;64732;56.314;44.068;2023-06-22T13:06:57;3.40;;;2.30;;
76035;SDS011;64732;56.314;44.068;2023-06-22T13:09:19;2.60;;;2.00;;
76035;SDS011;64732;56.314;44.068;2023-06-22T13:11:40;3.75;;;2.22;;
76035;SDS011;64732;56.314;44.068;2023-06-22T13:14:01;9.55;;;3.58;;
76035;SDS011;64732;56.314;44.068;2023-06-22T13:16:22;10.25;;;3.72;;
76035;SDS011;64732;56.314;44.068;2023-06-22T13:18:43;8.82;;;3.47;;
76035;SDS011;64732;56.314;44.068;2023-06-22T13:21:05;10.35;;;4.13;;
76035;SDS011;64732;56.314;44.068;2023-06-22T13:23:28;8.10;;;3.20;;
76035;SDS011;64732;56.314;44.068;2023-06-22T13:25:49;9.27;;;4.10;;
76035;SDS011;64732;56.314;44.068;2023-06-22T13:28:10;9.55;;;3.70;;
76035;SDS011;64732;56.314;44.068;2023-06-22T13:30:31;8.00;;;3.22;;
76035;SDS011;64732;56.314;44.068;2023-06-22T13:32:52;13.40;;;3.45;;
76035;SDS011;64732;56.314;44.068;2023-06-22T13:35:14;7.45;;;2.88;;
76035;SDS011;64732;56.314;44.068;2023-06-22T13:37:35;6.70;;;2.92;;
76035;SDS011;64732;56.314;44.068;2023-06-22T13:39:59;4.22;;;3.05;;
76035;SDS011;64732;56.314;44.068;2023-06-22T13:42:20;7.43;;;3.20;;
76035;SDS011;64732;56.314;44.068;2023-06-22T13:44:41;6.90;;;3.72;;
76035;SDS011;64732;56.314;44.068;2023-06-22T13:47:02;9.13;;;5.57;;
76035;SDS011;64732;56.314;44.068;2023-06-22T13:49:23;5.55;;;3.33;;
76035;SDS011;64732;56.314;44.068;2023-06-22T13:51:45;6.90;;;3.00;;
76035;SDS011;64732;56.314;44.068;2023-06-22T13:54:06;4.75;;;2.80;;
76035;SDS011;64732;56.314;44.068;2023-06-22T13:56:29;4.13;;;2.65;;
76035;SDS011;64732;56.314;44.068;2023-06-22T13:58:50;5.50;;;3.58;;
76035;SDS011;64732;56.314;44.068;2023-06-22T14:01:11;6.13;;;3.25;;
76035;SDS011;64732;56.314;44.068;2023-06-22T14:03:33;4.32;;;3.05;;
76035;SDS011;64732;56.314;44.068;2023-06-22T14:05:54;6.38;;;3.00;;